sensor_id;sensor_type;location;lat;lon;timestamp;P1;durP1;ratioP1;P2;durP2;ratioP2
27839;SDS011;15207;42.182;24.308;2023-04-23T00:01:03;7.57;;;4.03;;
27839;SDS011;15207;42.182;24.308;2023-04-23T00:03:30;5.40;;;4.00;;
27839;SDS011;15207;42.182;24.308;2023-04-23T00:06:06;6.93;;;4.50;;
27839;SDS011;15207;42.182;24.308;2023-04-23T00:08:34;5.93;;;4.43;;
27839;SDS011;15207;42.182;24.308;2023-04-23T00:11:00;5.72;;;4.15;;
27839;SDS011;15207;42.182;24.308;2023-04-23T00:13:26;7.20;;;4.53;;
27839;SDS011;15207;42.182;24.308;2023-04-23T00:15:52;9.32;;;4.68;;
27839;SDS011;15207;42.182;24.308;2023-04-23T00:18:17;5.25;;;4.43;;
27839;SDS011;15207;42.182;24.308;2023-04-23T00:20:44;9.18;;;4.47;;
27839;SDS011;15207;42.182;24.308;2023-04-23T00:23:09;10.13;;;5.05;;
27839;SDS011;15207;42.182;24.308;2023-04-23T00:25:34;7.85;;;4.38;;
27839;SDS011;15207;42.182;24.308;2023-04-23T00:28:00;9.25;;;5.38;;
27839;SDS011;15207;42.182;24.308;2023-04-23T00:30:25;7.53;;;5.10;;
27839;SDS011;15207;42.182;24.308;2023-04-23T00:32:51;7.25;;;4.88;;
27839;SDS011;15207;42.182;24.308;2023-04-23T00:35:16;6.50;;;4.75;;
27839;SDS011;15207;42.182;24.308;2023-04-23T00:37:42;10.00;;;4.93;;
27839;SDS011;15207;42.182;24.308;2023-04-23T00:40:08;6.97;;;4.95;;
27839;SDS011;15207;42.182;24.308;2023-04-23T00:42:35;7.28;;;4.45;;
27839;SDS011;15207;42.182;24.308;2023-04-23T00:45:01;6.60;;;4.40;;
27839;SDS011;15207;42.182;24.308;2023-04-23T00:47:27;7.57;;;5.03;;
27839;SDS011;15207;42.182;24.308;2023-04-23T00:49:53;6.35;;;4.57;;
27839;SDS011;15207;42.182;24.308;2023-04-23T00:52:20;8.63;;;4.88;;
27839;SDS011;15207;42.182;24.308;2023-04-23T00:54:46;6.78;;;4.97;;
27839;SDS011;15207;42.182;24.308;2023-04-23T00:57:11;8.32;;;4.60;;
27839;SDS011;15207;42.182;24.308;2023-04-23T00:59:37;7.30;;;5.03;;
27839;SDS011;15207;42.182;24.308;2023-04-23T01:02:03;9.48;;;4.78;;
27839;SDS011;15207;42.182;24.308;2023-04-23T01:04:29;8.10;;;4.82;;
27839;SDS011;15207;42.182;24.308;2023-04-23T01:06:56;7.28;;;4.72;;
27839;SDS011;15207;42.182;24.308;2023-04-23T01:09:23;5.78;;;4.57;;
27839;SDS011;15207;42.182;24.308;2023-04-23T01:11:51;10.43;;;5.45;;
27839;SDS011;15207;42.182;24.308;2023-04-23T01:14:17;7.18;;;4.55;;
27839;SDS011;15207;42.182;24.308;2023-04-23T01:16:43;5.93;;;4.60;;
27839;SDS011;15207;42.182;24.308;2023-04-23T01:19:08;9.98;;;5.55;;
27839;SDS011;15207;42.182;24.308;2023-04-23T01:21:35;5.85;;;4.38;;
27839;SDS011;15207;42.182;24.308;2023-04-23T01:24:03;7.07;;;4.60;;
27839;SDS011;15207;42.182;24.308;2023-04-23T01:26:29;7.70;;;4.50;;
27839;SDS011;15207;42.182;24.308;2023-04-23T01:28:54;6.13;;;4.10;;
27839;SDS011;15207;42.182;24.308;2023-04-23T01:31:20;6.53;;;3.92;;
27839;SDS011;15207;42.182;24.308;2023-04-23T01:33:46;6.53;;;3.92;;
27839;SDS011;15207;42.182;24.308;2023-04-23T01:36:13;6.30;;;4.35;;
27839;SDS011;15207;42.182;24.308;2023-04-23T01:38:39;7.70;;;4.53;;
27839;SDS011;15207;42.182;24.308;2023-04-23T01:41:05;5.20;;;4.10;;
27839;SDS011;15207;42.182;24.308;2023-04-23T01:43:30;9.35;;;4.93;;
27839;SDS011;15207;42.182;24.308;2023-04-23T01:45:59;8.60;;;4.95;;
27839;SDS011;15207;42.182;24.308;2023-04-23T01:48:24;7.87;;;4.57;;
27839;SDS011;15207;42.182;24.308;2023-04-23T01:50:50;6.55;;;4.40;;
27839;SDS011;15207;42.182;24.308;2023-04-23T01:53:17;5.78;;;4.45;;
27839;SDS011;15207;42.182;24.308;2023-04-23T01:55:44;7.68;;;4.70;;
27839;SDS011;15207;42.182;24.308;2023-04-23T01:58:11;8.00;;;4.85;;
27839;SDS011;15207;42.182;24.308;2023-04-23T02:00:37;6.30;;;4.05;;
27839;SDS011;15207;42.182;24.308;2023-04-23T02:03:02;5.20;;;3.88;;
27839;SDS011;15207;42.182;24.308;2023-04-23T02:05:28;6.30;;;3.20;;
27839;SDS011;15207;42.182;24.308;2023-04-23T02:07:54;4.68;;;3.53;;
27839;SDS011;15207;42.182;24.308;2023-04-23T02:10:20;5.72;;;3.45;;
27839;SDS011;15207;42.182;24.308;2023-04-23T02:12:46;5.97;;;3.55;;
27839;SDS011;15207;42.182;24.308;2023-04-23T02:15:13;5.78;;;3.08;;
27839;SDS011;15207;42.182;24.308;2023-04-23T02:17:40;4.00;;;3.00;;
27839;SDS011;15207;42.182;24.308;2023-04-23T02:20:08;5.70;;;3.50;;
27839;SDS011;15207;42.182;24.308;2023-04-23T02:22:35;5.78;;;3.30;;
27839;SDS011;15207;42.182;24.308;2023-04-23T02:25:01;4.93;;;2.95;;
27839;SDS011;15207;42.182;24.308;2023-04-23T02:27:27;4.38;;;3.10;;
27839;SDS011;15207;42.182;24.308;2023-04-23T02:29:53;5.07;;;3.13;;
27839;SDS011;15207;42.182;24.308;2023-04-23T02:32:18;4.50;;;3.33;;
27839;SDS011;15207;42.182;24.308;2023-04-23T02:34:44;5.35;;;3.67;;
27839;SDS011;15207;42.182;24.308;2023-04-23T02:37:10;3.97;;;2.95;;
27839;SDS011;15207;42.182;24.308;2023-04-23T02:39:36;5.53;;;3.55;;
27839;SDS011;15207;42.182;24.308;2023-04-23T02:42:03;4.60;;;3.17;;
27839;SDS011;15207;42.182;24.308;2023-04-23T02:44:28;6.03;;;3.67;;
27839;SDS011;15207;42.182;24.308;2023-04-23T02:46:54;5.22;;;3.47;;
27839;SDS011;15207;42.182;24.308;2023-04-23T02:49:20;7.60;;;3.08;;
27839;SDS011;15207;42.182;24.308;2023-04-23T02:51:45;4.20;;;3.30;;
27839;SDS011;15207;42.182;24.308;2023-04-23T02:54:11;6.45;;;3.00;;
27839;SDS011;15207;42.182;24.308;2023-04-23T02:56:37;4.70;;;3.40;;
27839;SDS011;15207;42.182;24.308;2023-04-23T02:59:03;5.10;;;3.63;;
27839;SDS011;15207;42.182;24.308;2023-04-23T03:01:30;3.75;;;2.90;;
27839;SDS011;15207;42.182;24.308;2023-04-23T03:03:56;5.57;;;3.20;;
27839;SDS011;15207;42.182;24.308;2023-04-23T03:06:22;3.88;;;3.03;;
27839;SDS011;15207;42.182;24.308;2023-04-23T03:08:48;3.13;;;2.80;;
27839;SDS011;15207;42.182;24.308;2023-04-23T03:11:13;4.82;;;3.20;;
27839;SDS011;15207;42.182;24.308;2023-04-23T03:13:39;5.30;;;3.42;;
27839;SDS011;15207;42.182;24.308;2023-04-23T03:16:04;3.28;;;2.45;;
27839;SDS011;15207;42.182;24.308;2023-04-23T03:18:30;4.50;;;3.20;;
27839;SDS011;15207;42.182;24.308;2023-04-23T03:20:56;3.67;;;2.97;;
27839;SDS011;15207;42.182;24.308;2023-04-23T03:23:21;3.08;;;2.65;;
27839;SDS011;15207;42.182;24.308;2023-04-23T03:25:48;3.08;;;2.53;;
27839;SDS011;15207;42.182;24.308;2023-04-23T03:28:14;5.28;;;3.33;;
27839;SDS011;15207;42.182;24.308;2023-04-23T03:30:39;4.03;;;3.25;;
27839;SDS011;15207;42.182;24.308;2023-04-23T03:33:05;4.03;;;2.78;;
27839;SDS011;15207;42.182;24.308;2023-04-23T03:35:31;4.35;;;3.00;;
27839;SDS011;15207;42.182;24.308;2023-04-23T03:37:56;5.60;;;3.00;;
27839;SDS011;15207;42.182;24.308;2023-04-23T03:40:22;6.90;;;3.35;;
27839;SDS011;15207;42.182;24.308;2023-04-23T03:42:47;5.03;;;3.20;;
27839;SDS011;15207;42.182;24.308;2023-04-23T03:45:14;4.65;;;3.30;;
27839;SDS011;15207;42.182;24.308;2023-04-23T03:47:41;4.13;;;3.20;;
27839;SDS011;15207;42.182;24.308;2023-04-23T03:50:07;5.65;;;3.38;;
27839;SDS011;15207;42.182;24.308;2023-04-23T03:52:33;4.60;;;3.55;;
27839;SDS011;15207;42.182;24.308;2023-04-23T03:54:59;4.18;;;3.30;;
27839;SDS011;15207;42.182;24.308;2023-04-23T03:57:25;4.10;;;3.05;;
27839;SDS011;15207;42.182;24.308;2023-04-23T03:59:50;5.72;;;3.78;;
27839;SDS011;15207;42.182;24.308;2023-04-23T04:02:16;5.13;;;3.30;;
27839;SDS011;15207;42.182;24.308;2023-04-23T04:04:42;5.20;;;3.53;;
27839;SDS011;15207;42.182;24.308;2023-04-23T04:07:09;5.05;;;3.45;;
27839;SDS011;15207;42.182;24.308;2023-04-23T04:09:36;4.28;;;3.42;;
27839;SDS011;15207;42.182;24.308;2023-04-23T04:12:01;5.63;;;3.90;;
27839;SDS011;15207;42.182;24.308;2023-04-23T04:14:28;4.45;;;3.65;;
27839;SDS011;15207;42.182;24.308;2023-04-23T04:16:53;4.95;;;3.75;;
27839;SDS011;15207;42.182;24.308;2023-04-23T04:19:19;4.28;;;3.75;;
27839;SDS011;15207;42.182;24.308;2023-04-23T04:21:44;3.95;;;3.50;;
27839;SDS011;15207;42.182;24.308;2023-04-23T04:24:10;5.00;;;3.58;;
27839;SDS011;15207;42.182;24.308;2023-04-23T04:26:36;5.18;;;3.95;;
27839;SDS011;15207;42.182;24.308;2023-04-23T04:29:01;6.38;;;4.22;;
27839;SDS011;15207;42.182;24.308;2023-04-23T04:31:27;5.03;;;3.97;;
27839;SDS011;15207;42.182;24.308;2023-04-23T04:33:53;6.63;;;4.35;;
27839;SDS011;15207;42.182;24.308;2023-04-23T04:36:22;9.13;;;4.40;;
27839;SDS011;15207;42.182;24.308;2023-04-23T04:38:49;6.45;;;4.25;;
27839;SDS011;15207;42.182;24.308;2023-04-23T04:41:16;7.00;;;4.07;;
27839;SDS011;15207;42.182;24.308;2023-04-23T04:43:43;5.72;;;4.32;;
27839;SDS011;15207;42.182;24.308;2023-04-23T04:46:10;7.40;;;4.43;;
27839;SDS011;15207;42.182;24.308;2023-04-23T04:51:05;7.05;;;3.67;;
27839;SDS011;15207;42.182;24.308;2023-04-23T04:53:31;6.50;;;4.53;;
27839;SDS011;15207;42.182;24.308;2023-04-23T04:55:57;6.07;;;4.22;;
27839;SDS011;15207;42.182;24.308;2023-04-23T04:58:22;6.13;;;4.18;;
27839;SDS011;15207;42.182;24.308;2023-04-23T05:00:48;6.85;;;4.38;;
27839;SDS011;15207;42.182;24.308;2023-04-23T05:03:16;9.43;;;4.55;;
27839;SDS011;15207;42.182;24.308;2023-04-23T05:05:42;7.57;;;4.63;;
27839;SDS011;15207;42.182;24.308;2023-04-23T05:08:09;7.68;;;4.03;;
27839;SDS011;15207;42.182;24.308;2023-04-23T05:10:35;5.80;;;4.13;;
27839;SDS011;15207;42.182;24.308;2023-04-23T05:13:00;9.13;;;4.97;;
27839;SDS011;15207;42.182;24.308;2023-04-23T05:15:26;11.35;;;4.45;;
27839;SDS011;15207;42.182;24.308;2023-04-23T05:17:52;8.63;;;4.43;;
27839;SDS011;15207;42.182;24.308;2023-04-23T05:20:18;8.73;;;4.40;;
27839;SDS011;15207;42.182;24.308;2023-04-23T05:22:44;8.15;;;4.85;;
27839;SDS011;15207;42.182;24.308;2023-04-23T05:25:10;10.38;;;4.70;;
27839;SDS011;15207;42.182;24.308;2023-04-23T05:27:36;6.68;;;5.07;;
27839;SDS011;15207;42.182;24.308;2023-04-23T05:30:02;12.90;;;4.45;;
27839;SDS011;15207;42.182;24.308;2023-04-23T05:32:29;7.13;;;4.90;;
27839;SDS011;15207;42.182;24.308;2023-04-23T05:34:55;11.27;;;5.13;;
27839;SDS011;15207;42.182;24.308;2023-04-23T05:37:21;10.10;;;5.50;;
27839;SDS011;15207;42.182;24.308;2023-04-23T05:39:46;6.97;;;4.65;;
27839;SDS011;15207;42.182;24.308;2023-04-23T05:42:12;6.65;;;4.93;;
27839;SDS011;15207;42.182;24.308;2023-04-23T05:44:38;9.75;;;4.90;;
27839;SDS011;15207;42.182;24.308;2023-04-23T05:47:05;6.75;;;4.65;;
27839;SDS011;15207;42.182;24.308;2023-04-23T05:49:31;7.68;;;5.05;;
27839;SDS011;15207;42.182;24.308;2023-04-23T05:51:56;9.52;;;5.10;;
27839;SDS011;15207;42.182;24.308;2023-04-23T05:54:23;8.60;;;5.25;;
27839;SDS011;15207;42.182;24.308;2023-04-23T05:56:48;7.50;;;5.35;;
27839;SDS011;15207;42.182;24.308;2023-04-23T05:59:14;8.60;;;5.32;;
27839;SDS011;15207;42.182;24.308;2023-04-23T06:01:40;7.25;;;4.97;;
27839;SDS011;15207;42.182;24.308;2023-04-23T06:04:06;8.02;;;5.00;;
27839;SDS011;15207;42.182;24.308;2023-04-23T06:06:31;8.75;;;5.40;;
27839;SDS011;15207;42.182;24.308;2023-04-23T06:08:57;8.27;;;5.55;;
27839;SDS011;15207;42.182;24.308;2023-04-23T06:11:22;10.82;;;5.25;;
27839;SDS011;15207;42.182;24.308;2023-04-23T06:13:48;8.25;;;5.47;;
27839;SDS011;15207;42.182;24.308;2023-04-23T06:16:13;16.55;;;5.47;;
27839;SDS011;15207;42.182;24.308;2023-04-23T06:18:39;8.15;;;5.15;;
27839;SDS011;15207;42.182;24.308;2023-04-23T06:21:04;12.20;;;5.60;;
27839;SDS011;15207;42.182;24.308;2023-04-23T06:23:30;7.50;;;5.15;;
27839;SDS011;15207;42.182;24.308;2023-04-23T06:25:56;8.35;;;5.30;;
27839;SDS011;15207;42.182;24.308;2023-04-23T06:28:22;8.13;;;5.13;;
27839;SDS011;15207;42.182;24.308;2023-04-23T06:30:48;9.43;;;4.82;;
27839;SDS011;15207;42.182;24.308;2023-04-23T06:33:13;9.55;;;4.78;;
27839;SDS011;15207;42.182;24.308;2023-04-23T06:35:39;10.75;;;4.80;;
27839;SDS011;15207;42.182;24.308;2023-04-23T06:38:04;7.25;;;5.05;;
27839;SDS011;15207;42.182;24.308;2023-04-23T06:40:30;6.72;;;4.95;;
27839;SDS011;15207;42.182;24.308;2023-04-23T06:42:57;8.57;;;5.47;;
27839;SDS011;15207;42.182;24.308;2023-04-23T06:45:22;11.32;;;6.50;;
27839;SDS011;15207;42.182;24.308;2023-04-23T06:47:48;11.38;;;5.82;;
27839;SDS011;15207;42.182;24.308;2023-04-23T06:50:14;10.27;;;5.72;;
27839;SDS011;15207;42.182;24.308;2023-04-23T06:52:39;9.73;;;5.68;;
27839;SDS011;15207;42.182;24.308;2023-04-23T06:55:06;10.93;;;5.57;;
27839;SDS011;15207;42.182;24.308;2023-04-23T06:57:32;9.18;;;5.47;;
27839;SDS011;15207;42.182;24.308;2023-04-23T06:59:57;8.68;;;5.25;;
27839;SDS011;15207;42.182;24.308;2023-04-23T07:02:23;9.45;;;5.40;;
27839;SDS011;15207;42.182;24.308;2023-04-23T07:04:48;9.05;;;5.18;;
27839;SDS011;15207;42.182;24.308;2023-04-23T07:07:14;8.55;;;5.75;;
27839;SDS011;15207;42.182;24.308;2023-04-23T07:09:39;11.55;;;5.55;;
27839;SDS011;15207;42.182;24.308;2023-04-23T07:12:05;10.68;;;5.13;;
27839;SDS011;15207;42.182;24.308;2023-04-23T07:14:30;9.43;;;5.68;;
27839;SDS011;15207;42.182;24.308;2023-04-23T07:16:56;16.17;;;6.25;;
27839;SDS011;15207;42.182;24.308;2023-04-23T07:19:23;8.65;;;6.00;;
27839;SDS011;15207;42.182;24.308;2023-04-23T07:21:49;8.38;;;5.47;;
27839;SDS011;15207;42.182;24.308;2023-04-23T07:24:15;12.63;;;5.13;;
27839;SDS011;15207;42.182;24.308;2023-04-23T07:26:40;10.80;;;6.03;;
27839;SDS011;15207;42.182;24.308;2023-04-23T07:29:06;9.05;;;5.68;;
27839;SDS011;15207;42.182;24.308;2023-04-23T07:31:34;7.90;;;6.05;;
27839;SDS011;15207;42.182;24.308;2023-04-23T07:34:00;10.07;;;6.07;;
27839;SDS011;15207;42.182;24.308;2023-04-23T07:36:25;10.45;;;5.78;;
27839;SDS011;15207;42.182;24.308;2023-04-23T07:38:51;8.40;;;5.68;;
27839;SDS011;15207;42.182;24.308;2023-04-23T07:41:17;11.50;;;6.13;;
27839;SDS011;15207;42.182;24.308;2023-04-23T07:43:42;7.72;;;5.40;;
27839;SDS011;15207;42.182;24.308;2023-04-23T07:46:08;9.77;;;5.78;;
27839;SDS011;15207;42.182;24.308;2023-04-23T07:48:33;12.15;;;6.20;;
27839;SDS011;15207;42.182;24.308;2023-04-23T07:51:00;14.35;;;6.88;;
27839;SDS011;15207;42.182;24.308;2023-04-23T07:53:26;9.80;;;6.07;;
27839;SDS011;15207;42.182;24.308;2023-04-23T07:55:53;11.38;;;6.35;;
27839;SDS011;15207;42.182;24.308;2023-04-23T08:00:48;13.45;;;7.22;;
27839;SDS011;15207;42.182;24.308;2023-04-23T08:03:13;12.00;;;6.85;;
27839;SDS011;15207;42.182;24.308;2023-04-23T08:05:39;13.60;;;7.20;;
27839;SDS011;15207;42.182;24.308;2023-04-23T08:08:05;14.18;;;7.00;;
27839;SDS011;15207;42.182;24.308;2023-04-23T08:10:33;9.32;;;6.00;;
27839;SDS011;15207;42.182;24.308;2023-04-23T08:12:59;13.68;;;7.00;;
27839;SDS011;15207;42.182;24.308;2023-04-23T08:15:25;10.23;;;6.03;;
27839;SDS011;15207;42.182;24.308;2023-04-23T08:17:51;10.77;;;6.20;;
27839;SDS011;15207;42.182;24.308;2023-04-23T08:20:16;10.30;;;6.65;;
27839;SDS011;15207;42.182;24.308;2023-04-23T08:22:42;10.48;;;6.40;;
27839;SDS011;15207;42.182;24.308;2023-04-23T08:25:08;9.80;;;6.43;;
27839;SDS011;15207;42.182;24.308;2023-04-23T08:27:34;12.07;;;6.85;;
27839;SDS011;15207;42.182;24.308;2023-04-23T08:29:59;13.32;;;6.43;;
27839;SDS011;15207;42.182;24.308;2023-04-23T08:32:25;12.05;;;6.82;;
27839;SDS011;15207;42.182;24.308;2023-04-23T08:34:50;11.00;;;6.55;;
27839;SDS011;15207;42.182;24.308;2023-04-23T08:37:16;9.43;;;6.55;;
27839;SDS011;15207;42.182;24.308;2023-04-23T08:39:41;11.27;;;7.28;;
27839;SDS011;15207;42.182;24.308;2023-04-23T08:42:12;13.70;;;7.35;;
27839;SDS011;15207;42.182;24.308;2023-04-23T08:44:43;9.68;;;6.50;;
27839;SDS011;15207;42.182;24.308;2023-04-23T08:47:11;9.57;;;6.38;;
27839;SDS011;15207;42.182;24.308;2023-04-23T08:49:41;11.35;;;7.07;;
27839;SDS011;15207;42.182;24.308;2023-04-23T08:52:14;9.73;;;6.60;;
27839;SDS011;15207;42.182;24.308;2023-04-23T08:54:45;8.77;;;6.30;;
27839;SDS011;15207;42.182;24.308;2023-04-23T08:57:14;8.68;;;5.90;;
27839;SDS011;15207;42.182;24.308;2023-04-23T08:59:41;11.18;;;6.47;;
27839;SDS011;15207;42.182;24.308;2023-04-23T09:02:07;11.32;;;6.25;;
27839;SDS011;15207;42.182;24.308;2023-04-23T09:04:34;7.72;;;5.20;;
27839;SDS011;15207;42.182;24.308;2023-04-23T09:07:01;10.90;;;6.53;;
27839;SDS011;15207;42.182;24.308;2023-04-23T09:09:28;14.15;;;6.00;;
27839;SDS011;15207;42.182;24.308;2023-04-23T09:11:55;10.38;;;6.25;;
27839;SDS011;15207;42.182;24.308;2023-04-23T09:14:24;10.43;;;6.47;;
27839;SDS011;15207;42.182;24.308;2023-04-23T09:16:50;9.15;;;5.88;;
27839;SDS011;15207;42.182;24.308;2023-04-23T09:19:16;8.13;;;5.78;;
27839;SDS011;15207;42.182;24.308;2023-04-23T09:21:43;8.07;;;5.57;;
27839;SDS011;15207;42.182;24.308;2023-04-23T09:24:10;8.25;;;6.32;;
27839;SDS011;15207;42.182;24.308;2023-04-23T09:26:38;7.00;;;5.47;;
27839;SDS011;15207;42.182;24.308;2023-04-23T09:29:12;11.68;;;5.18;;
27839;SDS011;15207;42.182;24.308;2023-04-23T09:31:41;10.02;;;5.45;;
27839;SDS011;15207;42.182;24.308;2023-04-23T09:34:07;5.82;;;4.70;;
27839;SDS011;15207;42.182;24.308;2023-04-23T09:36:33;8.90;;;5.15;;
27839;SDS011;15207;42.182;24.308;2023-04-23T09:39:01;10.88;;;5.30;;
27839;SDS011;15207;42.182;24.308;2023-04-23T09:41:27;7.78;;;4.80;;
27839;SDS011;15207;42.182;24.308;2023-04-23T09:43:55;6.60;;;5.13;;
27839;SDS011;15207;42.182;24.308;2023-04-23T09:46:37;7.38;;;4.95;;
27839;SDS011;15207;42.182;24.308;2023-04-23T09:49:05;10.45;;;5.65;;
27839;SDS011;15207;42.182;24.308;2023-04-23T09:51:35;8.93;;;4.93;;
27839;SDS011;15207;42.182;24.308;2023-04-23T09:54:14;8.20;;;4.47;;
27839;SDS011;15207;42.182;24.308;2023-04-23T09:56:51;6.13;;;4.68;;
27839;SDS011;15207;42.182;24.308;2023-04-23T09:59:29;6.78;;;4.22;;
27839;SDS011;15207;42.182;24.308;2023-04-23T10:04:21;5.38;;;3.70;;
27839;SDS011;15207;42.182;24.308;2023-04-23T10:06:52;6.60;;;4.28;;
27839;SDS011;15207;42.182;24.308;2023-04-23T10:09:20;9.82;;;4.47;;
27839;SDS011;15207;42.182;24.308;2023-04-23T10:11:50;6.03;;;4.45;;
27839;SDS011;15207;42.182;24.308;2023-04-23T10:14:17;6.80;;;4.57;;
27839;SDS011;15207;42.182;24.308;2023-04-23T10:16:46;7.20;;;4.35;;
27839;SDS011;15207;42.182;24.308;2023-04-23T10:19:15;6.93;;;4.65;;
27839;SDS011;15207;42.182;24.308;2023-04-23T10:21:43;6.63;;;4.50;;
27839;SDS011;15207;42.182;24.308;2023-04-23T10:24:12;10.60;;;4.53;;
27839;SDS011;15207;42.182;24.308;2023-04-23T10:26:44;6.95;;;4.22;;
27839;SDS011;15207;42.182;24.308;2023-04-23T10:29:12;6.18;;;4.03;;
27839;SDS011;15207;42.182;24.308;2023-04-23T10:31:42;7.03;;;4.55;;
27839;SDS011;15207;42.182;24.308;2023-04-23T10:34:09;6.82;;;5.00;;
27839;SDS011;15207;42.182;24.308;2023-04-23T10:36:36;7.22;;;4.78;;
27839;SDS011;15207;42.182;24.308;2023-04-23T10:39:02;6.85;;;4.10;;
27839;SDS011;15207;42.182;24.308;2023-04-23T10:44:05;6.60;;;5.15;;
27839;SDS011;15207;42.182;24.308;2023-04-23T10:46:35;7.10;;;5.18;;
27839;SDS011;15207;42.182;24.308;2023-04-23T10:49:10;11.02;;;5.50;;
27839;SDS011;15207;42.182;24.308;2023-04-23T10:51:41;7.20;;;5.25;;
27839;SDS011;15207;42.182;24.308;2023-04-23T10:54:10;6.55;;;4.40;;
27839;SDS011;15207;42.182;24.308;2023-04-23T10:56:39;5.03;;;4.13;;
27839;SDS011;15207;42.182;24.308;2023-04-23T10:59:06;7.20;;;4.30;;
27839;SDS011;15207;42.182;24.308;2023-04-23T11:01:33;7.35;;;4.53;;
27839;SDS011;15207;42.182;24.308;2023-04-23T11:03:58;6.20;;;4.28;;
27839;SDS011;15207;42.182;24.308;2023-04-23T11:12:04;6.32;;;3.97;;
27839;SDS011;15207;42.182;24.308;2023-04-23T11:15:08;5.65;;;4.32;;
27839;SDS011;15207;42.182;24.308;2023-04-23T11:22:36;7.97;;;4.47;;
27839;SDS011;15207;42.182;24.308;2023-04-23T11:25:03;7.82;;;4.88;;
27839;SDS011;15207;42.182;24.308;2023-04-23T11:27:30;7.45;;;4.90;;
27839;SDS011;15207;42.182;24.308;2023-04-23T11:29:56;6.45;;;4.85;;
27839;SDS011;15207;42.182;24.308;2023-04-23T11:32:22;9.30;;;4.82;;
27839;SDS011;15207;42.182;24.308;2023-04-23T11:34:48;8.50;;;4.82;;
27839;SDS011;15207;42.182;24.308;2023-04-23T11:37:15;9.23;;;5.60;;
27839;SDS011;15207;42.182;24.308;2023-04-23T11:39:45;7.15;;;4.53;;
27839;SDS011;15207;42.182;24.308;2023-04-23T11:42:15;5.80;;;4.60;;
27839;SDS011;15207;42.182;24.308;2023-04-23T11:44:45;8.02;;;5.30;;
27839;SDS011;15207;42.182;24.308;2023-04-23T11:47:12;12.00;;;5.22;;
27839;SDS011;15207;42.182;24.308;2023-04-23T11:49:39;12.63;;;5.63;;
27839;SDS011;15207;42.182;24.308;2023-04-23T11:52:09;8.85;;;5.07;;
27839;SDS011;15207;42.182;24.308;2023-04-23T11:54:35;6.07;;;5.10;;
27839;SDS011;15207;42.182;24.308;2023-04-23T11:57:00;9.38;;;5.43;;
27839;SDS011;15207;42.182;24.308;2023-04-23T11:59:28;6.47;;;4.90;;
27839;SDS011;15207;42.182;24.308;2023-04-23T12:01:55;8.63;;;5.00;;
27839;SDS011;15207;42.182;24.308;2023-04-23T12:04:23;9.45;;;5.30;;
27839;SDS011;15207;42.182;24.308;2023-04-23T12:06:50;7.93;;;5.07;;
27839;SDS011;15207;42.182;24.308;2023-04-23T12:09:18;6.53;;;4.38;;
27839;SDS011;15207;42.182;24.308;2023-04-23T12:11:45;6.82;;;4.40;;
27839;SDS011;15207;42.182;24.308;2023-04-23T12:14:12;8.13;;;4.03;;
27839;SDS011;15207;42.182;24.308;2023-04-23T12:19:14;6.80;;;4.10;;
27839;SDS011;15207;42.182;24.308;2023-04-23T12:24:28;4.80;;;3.42;;
27839;SDS011;15207;42.182;24.308;2023-04-23T12:26:58;4.90;;;3.63;;
27839;SDS011;15207;42.182;24.308;2023-04-23T12:29:28;4.68;;;3.83;;
27839;SDS011;15207;42.182;24.308;2023-04-23T12:31:56;6.45;;;4.20;;
27839;SDS011;15207;42.182;24.308;2023-04-23T12:34:22;6.23;;;3.87;;
27839;SDS011;15207;42.182;24.308;2023-04-23T12:36:52;6.13;;;4.28;;
27839;SDS011;15207;42.182;24.308;2023-04-23T12:41:50;4.72;;;3.80;;
27839;SDS011;15207;42.182;24.308;2023-04-23T12:44:17;5.43;;;4.50;;
27839;SDS011;15207;42.182;24.308;2023-04-23T12:46:43;8.60;;;4.45;;
27839;SDS011;15207;42.182;24.308;2023-04-23T12:49:09;6.75;;;4.45;;
27839;SDS011;15207;42.182;24.308;2023-04-23T12:51:34;5.68;;;3.90;;
27839;SDS011;15207;42.182;24.308;2023-04-23T12:54:00;5.18;;;3.78;;
27839;SDS011;15207;42.182;24.308;2023-04-23T12:56:25;5.57;;;3.50;;
27839;SDS011;15207;42.182;24.308;2023-04-23T12:58:51;5.72;;;3.65;;
27839;SDS011;15207;42.182;24.308;2023-04-23T13:01:17;6.30;;;3.25;;
27839;SDS011;15207;42.182;24.308;2023-04-23T13:03:42;5.07;;;3.30;;
27839;SDS011;15207;42.182;24.308;2023-04-23T13:06:08;4.65;;;3.50;;
27839;SDS011;15207;42.182;24.308;2023-04-23T13:08:33;5.63;;;3.83;;
27839;SDS011;15207;42.182;24.308;2023-04-23T13:10:59;5.40;;;3.50;;
27839;SDS011;15207;42.182;24.308;2023-04-23T13:13:25;5.88;;;3.78;;
27839;SDS011;15207;42.182;24.308;2023-04-23T13:15:51;5.82;;;3.47;;
27839;SDS011;15207;42.182;24.308;2023-04-23T13:18:17;4.88;;;3.00;;
27839;SDS011;15207;42.182;24.308;2023-04-23T13:20:42;4.45;;;2.90;;
27839;SDS011;15207;42.182;24.308;2023-04-23T13:23:08;5.13;;;3.28;;
27839;SDS011;15207;42.182;24.308;2023-04-23T13:25:35;6.43;;;3.38;;
27839;SDS011;15207;42.182;24.308;2023-04-23T13:28:00;4.68;;;3.70;;
27839;SDS011;15207;42.182;24.308;2023-04-23T13:30:26;5.47;;;3.28;;
27839;SDS011;15207;42.182;24.308;2023-04-23T13:32:51;5.57;;;3.63;;
27839;SDS011;15207;42.182;24.308;2023-04-23T13:35:17;3.60;;;2.88;;
27839;SDS011;15207;42.182;24.308;2023-04-23T13:37:43;5.80;;;3.05;;
27839;SDS011;15207;42.182;24.308;2023-04-23T13:40:09;6.15;;;3.38;;
27839;SDS011;15207;42.182;24.308;2023-04-23T13:42:35;7.65;;;4.15;;
27839;SDS011;15207;42.182;24.308;2023-04-23T13:45:00;4.07;;;2.88;;
27839;SDS011;15207;42.182;24.308;2023-04-23T13:47:29;4.93;;;3.30;;
27839;SDS011;15207;42.182;24.308;2023-04-23T13:49:57;4.88;;;2.90;;
27839;SDS011;15207;42.182;24.308;2023-04-23T13:52:23;4.95;;;2.92;;
27839;SDS011;15207;42.182;24.308;2023-04-23T13:54:48;5.40;;;2.47;;
27839;SDS011;15207;42.182;24.308;2023-04-23T13:57:15;3.75;;;2.55;;
27839;SDS011;15207;42.182;24.308;2023-04-23T13:59:40;3.92;;;2.53;;
27839;SDS011;15207;42.182;24.308;2023-04-23T14:02:06;3.55;;;2.40;;
27839;SDS011;15207;42.182;24.308;2023-04-23T14:04:31;5.13;;;2.63;;
27839;SDS011;15207;42.182;24.308;2023-04-23T14:06:57;3.70;;;2.47;;
27839;SDS011;15207;42.182;24.308;2023-04-23T14:09:22;4.93;;;2.75;;
27839;SDS011;15207;42.182;24.308;2023-04-23T14:11:48;5.57;;;2.55;;
27839;SDS011;15207;42.182;24.308;2023-04-23T14:14:13;2.33;;;2.08;;
27839;SDS011;15207;42.182;24.308;2023-04-23T14:16:40;3.45;;;2.30;;
27839;SDS011;15207;42.182;24.308;2023-04-23T14:19:06;3.60;;;2.47;;
27839;SDS011;15207;42.182;24.308;2023-04-23T14:21:31;5.03;;;2.60;;
27839;SDS011;15207;42.182;24.308;2023-04-23T14:24:01;8.00;;;2.45;;
27839;SDS011;15207;42.182;24.308;2023-04-23T14:26:35;4.40;;;2.35;;
27839;SDS011;15207;42.182;24.308;2023-04-23T14:29:23;3.15;;;2.55;;
27839;SDS011;15207;42.182;24.308;2023-04-23T14:32:04;4.15;;;2.20;;
27839;SDS011;15207;42.182;24.308;2023-04-23T14:34:30;5.65;;;2.72;;
27839;SDS011;15207;42.182;24.308;2023-04-23T14:36:56;3.95;;;2.22;;
27839;SDS011;15207;42.182;24.308;2023-04-23T14:39:22;3.63;;;2.30;;
27839;SDS011;15207;42.182;24.308;2023-04-23T14:41:50;4.10;;;2.25;;
27839;SDS011;15207;42.182;24.308;2023-04-23T14:44:15;4.07;;;2.40;;
27839;SDS011;15207;42.182;24.308;2023-04-23T14:46:41;6.68;;;2.83;;
27839;SDS011;15207;42.182;24.308;2023-04-23T14:49:06;7.35;;;2.25;;
27839;SDS011;15207;42.182;24.308;2023-04-23T14:51:33;2.85;;;2.22;;
27839;SDS011;15207;42.182;24.308;2023-04-23T14:53:58;2.80;;;1.80;;
27839;SDS011;15207;42.182;24.308;2023-04-23T14:56:23;5.47;;;2.38;;
27839;SDS011;15207;42.182;24.308;2023-04-23T14:58:49;2.90;;;2.40;;